sensor_id;sensor_type;location;lat;lon;timestamp;temperature;humidity
20376;DHT22;10347;51.828;6.466;2022-11-10T00:00:20;12.60;99.90
20376;DHT22;10347;51.828;6.466;2022-11-10T00:02:46;12.60;99.90
20376;DHT22;10347;51.828;6.466;2022-11-10T00:05:12;12.60;99.90
20376;DHT22;10347;51.828;6.466;2022-11-10T00:07:38;12.60;99.90
20376;DHT22;10347;51.828;6.466;2022-11-10T00:10:05;12.50;99.90
20376;DHT22;10347;51.828;6.466;2022-11-10T00:12:31;12.50;99.90
20376;DHT22;10347;51.828;6.466;2022-11-10T00:14:57;12.50;99.90
20376;DHT22;10347;51.828;6.466;2022-11-10T00:17:42;12.50;99.90
20376;DHT22;10347;51.828;6.466;2022-11-10T00:20:09;12.50;99.90
20376;DHT22;10347;51.828;6.466;2022-11-10T00:22:35;12.50;99.90
20376;DHT22;10347;51.828;6.466;2022-11-10T00:25:02;12.40;99.90
20376;DHT22;10347;51.828;6.466;2022-11-10T00:27:28;12.40;99.90
20376;DHT22;10347;51.828;6.466;2022-11-10T00:29:53;12.40;99.90
20376;DHT22;10347;51.828;6.466;2022-11-10T00:32:19;12.40;99.90
20376;DHT22;10347;51.828;6.466;2022-11-10T00:34:44;12.40;99.90
20376;DHT22;10347;51.828;6.466;2022-11-10T00:37:10;12.40;99.90
20376;DHT22;10347;51.828;6.466;2022-11-10T00:39:36;12.40;99.90
20376;DHT22;10347;51.828;6.466;2022-11-10T00:42:02;12.40;99.90
20376;DHT22;10347;51.828;6.466;2022-11-10T00:44:28;12.30;99.90
20376;DHT22;10347;51.828;6.466;2022-11-10T00:46:53;12.30;99.90
20376;DHT22;10347;51.828;6.466;2022-11-10T00:49:19;12.30;99.90
20376;DHT22;10347;51.828;6.466;2022-11-10T00:51:44;12.30;99.90
20376;DHT22;10347;51.828;6.466;2022-11-10T00:54:10;12.30;99.90
20376;DHT22;10347;51.828;6.466;2022-11-10T00:56:36;12.30;99.90
20376;DHT22;10347;51.828;6.466;2022-11-10T00:59:01;12.30;99.90
20376;DHT22;10347;51.828;6.466;2022-11-10T01:01:27;12.30;99.90
20376;DHT22;10347;51.828;6.466;2022-11-10T01:03:53;12.20;99.90
20376;DHT22;10347;51.828;6.466;2022-11-10T01:06:19;12.20;99.90
20376;DHT22;10347;51.828;6.466;2022-11-10T01:08:45;12.20;99.90
20376;DHT22;10347;51.828;6.466;2022-11-10T01:13:42;12.20;99.90
20376;DHT22;10347;51.828;6.466;2022-11-10T01:16:17;12.20;99.90
20376;DHT22;10347;51.828;6.466;2022-11-10T01:18:47;12.20;99.90
20376;DHT22;10347;51.828;6.466;2022-11-10T01:21:13;12.20;99.90
20376;DHT22;10347;51.828;6.466;2022-11-10T01:23:38;12.10;99.90
20376;DHT22;10347;51.828;6.466;2022-11-10T01:26:05;12.20;99.90
20376;DHT22;10347;51.828;6.466;2022-11-10T01:28:31;12.20;99.90
20376;DHT22;10347;51.828;6.466;2022-11-10T01:30:59;12.20;99.90
20376;DHT22;10347;51.828;6.466;2022-11-10T01:33:25;12.10;99.90
20376;DHT22;10347;51.828;6.466;2022-11-10T01:35:50;12.20;99.90
20376;DHT22;10347;51.828;6.466;2022-11-10T01:38:16;12.10;99.90
20376;DHT22;10347;51.828;6.466;2022-11-10T01:40:43;12.10;99.90
20376;DHT22;10347;51.828;6.466;2022-11-10T01:43:10;12.10;99.90
20376;DHT22;10347;51.828;6.466;2022-11-10T01:45:55;12.10;99.90
20376;DHT22;10347;51.828;6.466;2022-11-10T01:48:34;12.10;99.90
20376;DHT22;10347;51.828;6.466;2022-11-10T01:51:08;12.10;99.90
20376;DHT22;10347;51.828;6.466;2022-11-10T01:53:37;12.10;99.90
20376;DHT22;10347;51.828;6.466;2022-11-10T01:56:04;12.10;99.90
20376;DHT22;10347;51.828;6.466;2022-11-10T01:58:33;12.10;99.90
20376;DHT22;10347;51.828;6.466;2022-11-10T02:01:07;12.10;99.90
20376;DHT22;10347;51.828;6.466;2022-11-10T02:03:56;12.00;99.90
20376;DHT22;10347;51.828;6.466;2022-11-10T02:06:30;12.00;99.90
20376;DHT22;10347;51.828;6.466;2022-11-10T02:08:57;12.00;99.90
20376;DHT22;10347;51.828;6.466;2022-11-10T02:11:24;12.00;99.90
20376;DHT22;10347;51.828;6.466;2022-11-10T02:13:50;12.00;99.90
20376;DHT22;10347;51.828;6.466;2022-11-10T02:16:17;12.00;99.90
20376;DHT22;10347;51.828;6.466;2022-11-10T02:18:43;12.00;99.90
20376;DHT22;10347;51.828;6.466;2022-11-10T02:21:09;12.00;99.90
20376;DHT22;10347;51.828;6.466;2022-11-10T02:26:02;12.00;99.90
20376;DHT22;10347;51.828;6.466;2022-11-10T02:28:32;12.00;99.90
20376;DHT22;10347;51.828;6.466;2022-11-10T02:30:57;12.00;99.90
20376;DHT22;10347;51.828;6.466;2022-11-10T02:33:23;12.00;99.90
20376;DHT22;10347;51.828;6.466;2022-11-10T02:35:48;11.90;99.90
20376;DHT22;10347;51.828;6.466;2022-11-10T02:38:14;11.90;99.90
20376;DHT22;10347;51.828;6.466;2022-11-10T02:40:40;12.00;99.90
20376;DHT22;10347;51.828;6.466;2022-11-10T02:43:09;12.00;99.90
20376;DHT22;10347;51.828;6.466;2022-11-10T02:45:35;12.00;99.90
20376;DHT22;10347;51.828;6.466;2022-11-10T02:48:07;12.00;99.90
20376;DHT22;10347;51.828;6.466;2022-11-10T02:50:32;11.90;99.90
20376;DHT22;10347;51.828;6.466;2022-11-10T02:52:58;12.00;99.90
20376;DHT22;10347;51.828;6.466;2022-11-10T02:55:23;12.00;99.90
20376;DHT22;10347;51.828;6.466;2022-11-10T02:57:49;12.00;99.90
20376;DHT22;10347;51.828;6.466;2022-11-10T03:00:15;11.90;99.90
20376;DHT22;10347;51.828;6.466;2022-11-10T03:02:41;11.90;99.90
20376;DHT22;10347;51.828;6.466;2022-11-10T03:05:06;12.00;99.90
20376;DHT22;10347;51.828;6.466;2022-11-10T03:07:32;12.00;99.90
20376;DHT22;10347;51.828;6.466;2022-11-10T03:09:57;11.90;99.90
20376;DHT22;10347;51.828;6.466;2022-11-10T03:12:23;11.90;99.90
20376;DHT22;10347;51.828;6.466;2022-11-10T03:14:48;12.00;99.90
20376;DHT22;10347;51.828;6.466;2022-11-10T03:17:14;12.00;99.90
20376;DHT22;10347;51.828;6.466;2022-11-10T03:19:40;11.90;99.90
20376;DHT22;10347;51.828;6.466;2022-11-10T03:22:05;11.90;99.90
20376;DHT22;10347;51.828;6.466;2022-11-10T03:24:31;11.90;99.90
20376;DHT22;10347;51.828;6.466;2022-11-10T03:26:56;11.90;99.90
20376;DHT22;10347;51.828;6.466;2022-11-10T03:29:22;11.90;99.90
20376;DHT22;10347;51.828;6.466;2022-11-10T03:31:47;11.90;99.90
20376;DHT22;10347;51.828;6.466;2022-11-10T03:34:13;11.90;99.90
20376;DHT22;10347;51.828;6.466;2022-11-10T03:36:38;11.90;99.90
20376;DHT22;10347;51.828;6.466;2022-11-10T03:39:04;12.00;99.90
20376;DHT22;10347;51.828;6.466;2022-11-10T03:41:29;11.90;99.90
20376;DHT22;10347;51.828;6.466;2022-11-10T03:43:56;11.90;99.90
20376;DHT22;10347;51.828;6.466;2022-11-10T03:46:21;11.90;99.90
20376;DHT22;10347;51.828;6.466;2022-11-10T03:48:47;11.90;99.90
20376;DHT22;10347;51.828;6.466;2022-11-10T03:51:12;11.90;99.90
20376;DHT22;10347;51.828;6.466;2022-11-10T03:53:38;11.90;99.90
20376;DHT22;10347;51.828;6.466;2022-11-10T03:56:04;11.90;99.90
20376;DHT22;10347;51.828;6.466;2022-11-10T03:58:31;11.90;99.90
20376;DHT22;10347;51.828;6.466;2022-11-10T04:00:57;11.90;99.90
20376;DHT22;10347;51.828;6.466;2022-11-10T04:03:23;11.90;99.90
20376;DHT22;10347;51.828;6.466;2022-11-10T04:05:49;11.90;99.90
20376;DHT22;10347;51.828;6.466;2022-11-10T04:08:33;11.90;99.90
20376;DHT22;10347;51.828;6.466;2022-11-10T04:11:18;11.90;99.90
20376;DHT22;10347;51.828;6.466;2022-11-10T04:14:03;11.90;99.90
20376;DHT22;10347;51.828;6.466;2022-11-10T04:16:47;11.90;99.90
20376;DHT22;10347;51.828;6.466;2022-11-10T04:19:12;11.90;99.90
20376;DHT22;10347;51.828;6.466;2022-11-10T04:21:38;11.90;99.90
20376;DHT22;10347;51.828;6.466;2022-11-10T04:24:03;11.90;99.90
20376;DHT22;10347;51.828;6.466;2022-11-10T04:26:29;11.90;99.90
20376;DHT22;10347;51.828;6.466;2022-11-10T04:28:57;11.80;99.90
20376;DHT22;10347;51.828;6.466;2022-11-10T04:31:24;11.80;99.90
20376;DHT22;10347;51.828;6.466;2022-11-10T04:33:51;11.80;99.90
20376;DHT22;10347;51.828;6.466;2022-11-10T04:36:19;11.80;99.90
20376;DHT22;10347;51.828;6.466;2022-11-10T04:38:45;11.80;99.90
20376;DHT22;10347;51.828;6.466;2022-11-10T04:41:11;11.80;99.90
20376;DHT22;10347;51.828;6.466;2022-11-10T04:43:38;11.80;99.90
20376;DHT22;10347;51.828;6.466;2022-11-10T04:46:05;11.80;99.90
20376;DHT22;10347;51.828;6.466;2022-11-10T04:48:31;11.80;99.90
20376;DHT22;10347;51.828;6.466;2022-11-10T04:51:04;11.80;99.90
20376;DHT22;10347;51.828;6.466;2022-11-10T04:53:31;11.80;99.90
20376;DHT22;10347;51.828;6.466;2022-11-10T04:55:56;11.80;99.90
20376;DHT22;10347;51.828;6.466;2022-11-10T04:58:22;11.70;99.90
20376;DHT22;10347;51.828;6.466;2022-11-10T05:00:47;11.70;99.90
20376;DHT22;10347;51.828;6.466;2022-11-10T05:03:13;11.70;99.90
20376;DHT22;10347;51.828;6.466;2022-11-10T05:05:40;11.70;99.90
20376;DHT22;10347;51.828;6.466;2022-11-10T05:08:06;11.70;99.90
20376;DHT22;10347;51.828;6.466;2022-11-10T05:10:33;11.70;99.90
20376;DHT22;10347;51.828;6.466;2022-11-10T05:12:59;11.70;99.90
20376;DHT22;10347;51.828;6.466;2022-11-10T05:15:25;11.70;99.90
20376;DHT22;10347;51.828;6.466;2022-11-10T05:17:52;11.70;99.90
20376;DHT22;10347;51.828;6.466;2022-11-10T05:20:19;11.70;99.90
20376;DHT22;10347;51.828;6.466;2022-11-10T05:22:46;11.70;99.90
20376;DHT22;10347;51.828;6.466;2022-11-10T05:25:33;11.70;99.90
20376;DHT22;10347;51.828;6.466;2022-11-10T05:28:00;11.70;99.90
20376;DHT22;10347;51.828;6.466;2022-11-10T05:30:25;11.70;99.90
20376;DHT22;10347;51.828;6.466;2022-11-10T05:32:51;11.70;99.90
20376;DHT22;10347;51.828;6.466;2022-11-10T05:35:17;11.70;99.90
20376;DHT22;10347;51.828;6.466;2022-11-10T05:37:42;11.70;99.90
20376;DHT22;10347;51.828;6.466;2022-11-10T05:40:08;11.70;99.90
20376;DHT22;10347;51.828;6.466;2022-11-10T05:42:40;11.60;99.90
20376;DHT22;10347;51.828;6.466;2022-11-10T05:45:06;11.60;99.90
20376;DHT22;10347;51.828;6.466;2022-11-10T05:47:36;11.60;99.90
20376;DHT22;10347;51.828;6.466;2022-11-10T05:50:02;11.60;99.90
20376;DHT22;10347;51.828;6.466;2022-11-10T05:52:28;11.60;99.90
20376;DHT22;10347;51.828;6.466;2022-11-10T05:54:53;11.60;99.90
20376;DHT22;10347;51.828;6.466;2022-11-10T05:57:20;11.60;99.90
20376;DHT22;10347;51.828;6.466;2022-11-10T05:59:45;11.60;99.90
20376;DHT22;10347;51.828;6.466;2022-11-10T06:02:11;11.60;99.90
20376;DHT22;10347;51.828;6.466;2022-11-10T06:04:37;11.60;99.90
20376;DHT22;10347;51.828;6.466;2022-11-10T06:07:02;11.60;99.90
20376;DHT22;10347;51.828;6.466;2022-11-10T06:09:28;11.60;99.90
20376;DHT22;10347;51.828;6.466;2022-11-10T06:11:54;11.60;99.90
20376;DHT22;10347;51.828;6.466;2022-11-10T06:14:19;11.60;99.90
20376;DHT22;10347;51.828;6.466;2022-11-10T06:16:45;11.60;99.90
20376;DHT22;10347;51.828;6.466;2022-11-10T06:19:10;11.60;99.90
20376;DHT22;10347;51.828;6.466;2022-11-10T06:21:36;11.60;99.90
20376;DHT22;10347;51.828;6.466;2022-11-10T06:24:01;11.60;99.90
20376;DHT22;10347;51.828;6.466;2022-11-10T06:26:27;11.60;99.90
20376;DHT22;10347;51.828;6.466;2022-11-10T06:28:53;11.60;99.90
20376;DHT22;10347;51.828;6.466;2022-11-10T06:31:18;11.50;99.90
20376;DHT22;10347;51.828;6.466;2022-11-10T06:33:44;11.50;99.90
20376;DHT22;10347;51.828;6.466;2022-11-10T06:36:09;11.60;99.90
20376;DHT22;10347;51.828;6.466;2022-11-10T06:38:35;11.60;99.90
20376;DHT22;10347;51.828;6.466;2022-11-10T06:41:00;11.60;99.90
20376;DHT22;10347;51.828;6.466;2022-11-10T06:43:26;11.60;99.90
20376;DHT22;10347;51.828;6.466;2022-11-10T06:45:52;11.60;99.90
20376;DHT22;10347;51.828;6.466;2022-11-10T06:48:17;11.60;99.90
20376;DHT22;10347;51.828;6.466;2022-11-10T06:50:43;11.50;99.90
20376;DHT22;10347;51.828;6.466;2022-11-10T06:53:09;11.60;99.90
20376;DHT22;10347;51.828;6.466;2022-11-10T06:55:35;11.60;99.90
20376;DHT22;10347;51.828;6.466;2022-11-10T06:58:01;11.60;99.90
20376;DHT22;10347;51.828;6.466;2022-11-10T07:00:27;11.60;99.90
20376;DHT22;10347;51.828;6.466;2022-11-10T07:03:03;11.60;99.90
20376;DHT22;10347;51.828;6.466;2022-11-10T07:05:30;11.60;99.90
20376;DHT22;10347;51.828;6.466;2022-11-10T07:08:04;11.60;99.90
20376;DHT22;10347;51.828;6.466;2022-11-10T07:10:30;11.60;99.90
20376;DHT22;10347;51.828;6.466;2022-11-10T07:12:57;11.60;99.90
20376;DHT22;10347;51.828;6.466;2022-11-10T07:15:22;11.60;99.90
20376;DHT22;10347;51.828;6.466;2022-11-10T07:17:48;11.60;99.90
20376;DHT22;10347;51.828;6.466;2022-11-10T07:20:14;11.60;99.90
20376;DHT22;10347;51.828;6.466;2022-11-10T07:22:39;11.60;99.90
20376;DHT22;10347;51.828;6.466;2022-11-10T07:25:05;11.60;99.90
20376;DHT22;10347;51.828;6.466;2022-11-10T07:27:31;11.60;99.90
20376;DHT22;10347;51.828;6.466;2022-11-10T07:29:56;11.60;99.90
20376;DHT22;10347;51.828;6.466;2022-11-10T07:32:22;11.60;99.90
20376;DHT22;10347;51.828;6.466;2022-11-10T07:34:47;11.60;99.90
20376;DHT22;10347;51.828;6.466;2022-11-10T07:37:13;11.60;99.90
20376;DHT22;10347;51.828;6.466;2022-11-10T07:39:38;11.60;99.90
20376;DHT22;10347;51.828;6.466;2022-11-10T07:42:04;11.60;99.90
20376;DHT22;10347;51.828;6.466;2022-11-10T07:44:29;11.60;99.90
20376;DHT22;10347;51.828;6.466;2022-11-10T07:46:55;11.60;99.90
20376;DHT22;10347;51.828;6.466;2022-11-10T07:49:21;11.60;99.90
20376;DHT22;10347;51.828;6.466;2022-11-10T07:51:46;11.60;99.90
20376;DHT22;10347;51.828;6.466;2022-11-10T07:54:12;11.60;99.90
20376;DHT22;10347;51.828;6.466;2022-11-10T07:56:37;11.60;99.90
20376;DHT22;10347;51.828;6.466;2022-11-10T07:59:03;11.60;99.90
20376;DHT22;10347;51.828;6.466;2022-11-10T08:01:28;11.60;99.90
20376;DHT22;10347;51.828;6.466;2022-11-10T08:03:54;11.60;99.90
20376;DHT22;10347;51.828;6.466;2022-11-10T08:06:19;11.60;99.90
20376;DHT22;10347;51.828;6.466;2022-11-10T08:08:45;11.70;99.90
20376;DHT22;10347;51.828;6.466;2022-11-10T08:11:11;11.70;99.90
20376;DHT22;10347;51.828;6.466;2022-11-10T08:13:37;11.70;99.90
20376;DHT22;10347;51.828;6.466;2022-11-10T08:16:04;11.70;99.90
20376;DHT22;10347;51.828;6.466;2022-11-10T08:18:29;11.70;99.90
20376;DHT22;10347;51.828;6.466;2022-11-10T08:20:55;11.60;99.90
20376;DHT22;10347;51.828;6.466;2022-11-10T08:23:21;11.70;99.90
20376;DHT22;10347;51.828;6.466;2022-11-10T08:25:46;11.70;99.90
20376;DHT22;10347;51.828;6.466;2022-11-10T08:28:16;11.70;99.90
20376;DHT22;10347;51.828;6.466;2022-11-10T08:30:43;11.70;99.90
20376;DHT22;10347;51.828;6.466;2022-11-10T08:33:11;11.80;99.90
20376;DHT22;10347;51.828;6.466;2022-11-10T08:35:39;11.80;99.90
20376;DHT22;10347;51.828;6.466;2022-11-10T08:38:06;11.80;99.90
20376;DHT22;10347;51.828;6.466;2022-11-10T08:40:32;11.90;99.90
20376;DHT22;10347;51.828;6.466;2022-11-10T08:42:59;11.90;99.90
20376;DHT22;10347;51.828;6.466;2022-11-10T08:45:25;11.90;99.90
20376;DHT22;10347;51.828;6.466;2022-11-10T08:48:10;11.90;99.90
20376;DHT22;10347;51.828;6.466;2022-11-10T08:50:37;12.00;99.90
20376;DHT22;10347;51.828;6.466;2022-11-10T08:53:06;12.00;99.90
20376;DHT22;10347;51.828;6.466;2022-11-10T08:55:32;12.10;99.90
20376;DHT22;10347;51.828;6.466;2022-11-10T08:57:59;12.10;99.90
20376;DHT22;10347;51.828;6.466;2022-11-10T09:00:25;12.10;99.90
20376;DHT22;10347;51.828;6.466;2022-11-10T09:02:53;12.10;99.90
20376;DHT22;10347;51.828;6.466;2022-11-10T09:05:19;12.20;99.90
20376;DHT22;10347;51.828;6.466;2022-11-10T09:07:46;12.20;99.90
20376;DHT22;10347;51.828;6.466;2022-11-10T09:10:12;12.30;99.90
20376;DHT22;10347;51.828;6.466;2022-11-10T09:12:40;12.30;99.90
20376;DHT22;10347;51.828;6.466;2022-11-10T09:15:07;12.40;99.90
20376;DHT22;10347;51.828;6.466;2022-11-10T09:17:33;12.40;99.90
20376;DHT22;10347;51.828;6.466;2022-11-10T09:19:58;12.50;99.90
20376;DHT22;10347;51.828;6.466;2022-11-10T09:22:24;12.60;99.90
20376;DHT22;10347;51.828;6.466;2022-11-10T09:24:49;12.60;99.90
20376;DHT22;10347;51.828;6.466;2022-11-10T09:27:15;12.70;99.90
20376;DHT22;10347;51.828;6.466;2022-11-10T09:29:40;12.80;99.90
20376;DHT22;10347;51.828;6.466;2022-11-10T09:32:06;12.80;99.90
20376;DHT22;10347;51.828;6.466;2022-11-10T09:34:31;12.90;99.90
20376;DHT22;10347;51.828;6.466;2022-11-10T09:36:57;12.90;99.90
20376;DHT22;10347;51.828;6.466;2022-11-10T09:39:23;13.00;99.90
20376;DHT22;10347;51.828;6.466;2022-11-10T09:41:48;13.10;99.90
20376;DHT22;10347;51.828;6.466;2022-11-10T09:44:27;13.10;99.90
20376;DHT22;10347;51.828;6.466;2022-11-10T09:47:00;13.20;99.90
20376;DHT22;10347;51.828;6.466;2022-11-10T09:49:33;13.20;99.90
20376;DHT22;10347;51.828;6.466;2022-11-10T09:52:01;13.30;99.90
20376;DHT22;10347;51.828;6.466;2022-11-10T09:54:52;13.40;99.90
20376;DHT22;10347;51.828;6.466;2022-11-10T09:57:22;13.40;99.90
20376;DHT22;10347;51.828;6.466;2022-11-10T09:59:48;13.50;99.90
20376;DHT22;10347;51.828;6.466;2022-11-10T10:02:44;13.60;99.90
20376;DHT22;10347;51.828;6.466;2022-11-10T10:16:33;13.90;99.90
20376;DHT22;10347;51.828;6.466;2022-11-10T10:19:15;14.00;99.90
20376;DHT22;10347;51.828;6.466;2022-11-10T10:24:15;14.10;99.90
20376;DHT22;10347;51.828;6.466;2022-11-10T10:26:50;14.20;99.90
20376;DHT22;10347;51.828;6.466;2022-11-10T10:29:23;14.20;99.90
20376;DHT22;10347;51.828;6.466;2022-11-10T10:31:52;14.30;99.90
20376;DHT22;10347;51.828;6.466;2022-11-10T10:34:23;14.30;99.90
20376;DHT22;10347;51.828;6.466;2022-11-10T10:36:50;14.40;99.90
20376;DHT22;10347;51.828;6.466;2022-11-10T10:39:23;14.40;99.90
20376;DHT22;10347;51.828;6.466;2022-11-10T10:41:51;14.50;99.90
20376;DHT22;10347;51.828;6.466;2022-11-10T10:44:18;14.50;99.90
20376;DHT22;10347;51.828;6.466;2022-11-10T10:46:58;14.60;99.90
20376;DHT22;10347;51.828;6.466;2022-11-10T10:49:26;14.60;99.90
20376;DHT22;10347;51.828;6.466;2022-11-10T10:52:09;14.70;99.90
20376;DHT22;10347;51.828;6.466;2022-11-10T10:54:36;14.70;99.90
20376;DHT22;10347;51.828;6.466;2022-11-10T10:57:26;14.80;99.90
20376;DHT22;10347;51.828;6.466;2022-11-10T11:00:19;14.80;99.90
20376;DHT22;10347;51.828;6.466;2022-11-10T11:03:01;14.90;99.90
20376;DHT22;10347;51.828;6.466;2022-11-10T11:05:26;14.90;99.90
20376;DHT22;10347;51.828;6.466;2022-11-10T11:08:00;15.00;99.90
20376;DHT22;10347;51.828;6.466;2022-11-10T11:10:29;15.00;99.90
20376;DHT22;10347;51.828;6.466;2022-11-10T11:13:14;15.10;99.90
20376;DHT22;10347;51.828;6.466;2022-11-10T11:15:56;15.10;99.90
20376;DHT22;10347;51.828;6.466;2022-11-10T11:18:22;15.20;99.90
20376;DHT22;10347;51.828;6.466;2022-11-10T11:26:21;15.30;99.90
20376;DHT22;10347;51.828;6.466;2022-11-10T11:29:25;15.30;99.90
20376;DHT22;10347;51.828;6.466;2022-11-10T11:34:29;15.40;99.90
20376;DHT22;10347;51.828;6.466;2022-11-10T11:42:27;15.50;99.90
20376;DHT22;10347;51.828;6.466;2022-11-10T11:48:06;15.50;99.90
20376;DHT22;10347;51.828;6.466;2022-11-10T11:50:58;15.50;99.90
20376;DHT22;10347;51.828;6.466;2022-11-10T11:56:33;15.60;99.90
20376;DHT22;10347;51.828;6.466;2022-11-10T12:07:12;15.70;99.90
20376;DHT22;10347;51.828;6.466;2022-11-10T12:12:46;15.80;99.90
20376;DHT22;10347;51.828;6.466;2022-11-10T12:15:31;15.80;99.90
20376;DHT22;10347;51.828;6.466;2022-11-10T12:18:21;15.90;99.90
20376;DHT22;10347;51.828;6.466;2022-11-10T12:35:01;16.00;99.90
20376;DHT22;10347;51.828;6.466;2022-11-10T12:40:24;16.00;99.90
20376;DHT22;10347;51.828;6.466;2022-11-10T12:43:02;16.00;99.90
20376;DHT22;10347;51.828;6.466;2022-11-10T12:45:39;16.00;99.90
20376;DHT22;10347;51.828;6.466;2022-11-10T12:48:10;16.00;99.90
20376;DHT22;10347;51.828;6.466;2022-11-10T12:50:44;16.10;99.90
20376;DHT22;10347;51.828;6.466;2022-11-10T12:53:25;16.10;99.90
20376;DHT22;10347;51.828;6.466;2022-11-10T12:55:56;16.10;99.90
20376;DHT22;10347;51.828;6.466;2022-11-10T12:58:24;16.10;99.90
20376;DHT22;10347;51.828;6.466;2022-11-10T13:00:55;16.10;99.90
20376;DHT22;10347;51.828;6.466;2022-11-10T13:03:30;16.10;99.90
20376;DHT22;10347;51.828;6.466;2022-11-10T13:06:01;16.10;99.90
20376;DHT22;10347;51.828;6.466;2022-11-10T13:08:31;16.10;99.90
20376;DHT22;10347;51.828;6.466;2022-11-10T13:11:19;16.20;99.90
20376;DHT22;10347;51.828;6.466;2022-11-10T13:13:58;16.20;99.90
20376;DHT22;10347;51.828;6.466;2022-11-10T13:19:02;16.20;99.90
20376;DHT22;10347;51.828;6.466;2022-11-10T13:24:22;16.20;99.90
20376;DHT22;10347;51.828;6.466;2022-11-10T13:26:51;16.20;99.90
20376;DHT22;10347;51.828;6.466;2022-11-10T13:32:27;16.20;99.90
20376;DHT22;10347;51.828;6.466;2022-11-10T13:34:54;16.20;99.90
20376;DHT22;10347;51.828;6.466;2022-11-10T13:42:42;16.30;99.90
20376;DHT22;10347;51.828;6.466;2022-11-10T13:45:41;16.30;99.90
20376;DHT22;10347;51.828;6.466;2022-11-10T13:53:45;16.40;99.90
20376;DHT22;10347;51.828;6.466;2022-11-10T13:59:18;16.40;99.90
20376;DHT22;10347;51.828;6.466;2022-11-10T14:01:44;16.40;99.90
20376;DHT22;10347;51.828;6.466;2022-11-10T14:07:15;16.40;99.90
20376;DHT22;10347;51.828;6.466;2022-11-10T14:09:50;16.40;99.90
20376;DHT22;10347;51.828;6.466;2022-11-10T14:15:33;16.40;99.90
20376;DHT22;10347;51.828;6.466;2022-11-10T14:18:02;16.40;99.90
20376;DHT22;10347;51.828;6.466;2022-11-10T14:20:40;16.40;99.90
20376;DHT22;10347;51.828;6.466;2022-11-10T14:23:20;16.40;99.90
20376;DHT22;10347;51.828;6.466;2022-11-10T14:25:54;16.40;99.90
20376;DHT22;10347;51.828;6.466;2022-11-10T14:28:31;16.40;99.90
20376;DHT22;10347;51.828;6.466;2022-11-10T14:30:57;16.40;99.90
20376;DHT22;10347;51.828;6.466;2022-11-10T14:33:24;16.50;99.90
20376;DHT22;10347;51.828;6.466;2022-11-10T14:35:54;16.50;99.90
20376;DHT22;10347;51.828;6.466;2022-11-10T14:38:22;16.40;99.90
20376;DHT22;10347;51.828;6.466;2022-11-10T14:40:49;16.40;99.90
20376;DHT22;10347;51.828;6.466;2022-11-10T14:43:36;16.50;99.90
20376;DHT22;10347;51.828;6.466;2022-11-10T14:46:04;16.50;99.90
20376;DHT22;10347;51.828;6.466;2022-11-10T14:48:35;16.50;99.90
20376;DHT22;10347;51.828;6.466;2022-11-10T14:51:19;16.40;99.90
20376;DHT22;10347;51.828;6.466;2022-11-10T14:53:47;16.50;99.90
20376;DHT22;10347;51.828;6.466;2022-11-10T14:56:16;16.40;99.90
20376;DHT22;10347;51.828;6.466;2022-11-10T14:58:45;16.40;99.90
20376;DHT22;10347;51.828;6.466;2022-11-10T15:03:59;16.40;99.90
20376;DHT22;10347;51.828;6.466;2022-11-10T15:06:25;16.40;99.90
20376;DHT22;10347;51.828;6.466;2022-11-10T15:08:51;16.30;99.90
20376;DHT22;10347;51.828;6.466;2022-11-10T15:11:38;16.30;99.90
20376;DHT22;10347;51.828;6.466;2022-11-10T15:14:20;16.30;99.90
20376;DHT22;10347;51.828;6.466;2022-11-10T15:17:10;16.20;99.90
20376;DHT22;10347;51.828;6.466;2022-11-10T15:19:52;16.20;99.90
20376;DHT22;10347;51.828;6.466;2022-11-10T15:24:54;16.20;99.90
20376;DHT22;10347;51.828;6.466;2022-11-10T15:29:48;16.20;99.90
20376;DHT22;10347;51.828;6.466;2022-11-10T15:32:15;16.20;99.90
20376;DHT22;10347;51.828;6.466;2022-11-10T15:34:43;16.10;99.90
20376;DHT22;10347;51.828;6.466;2022-11-10T15:37:30;16.10;99.90
20376;DHT22;10347;51.828;6.466;2022-11-10T15:45:32;16.00;99.90
20376;DHT22;10347;51.828;6.466;2022-11-10T15:47:58;16.00;99.90
20376;DHT22;10347;51.828;6.466;2022-11-10T15:50:24;16.10;99.90
20376;DHT22;10347;51.828;6.466;2022-11-10T15:52:49;16.10;99.90
20376;DHT22;10347;51.828;6.466;2022-11-10T15:55:23;16.00;99.90
20376;DHT22;10347;51.828;6.466;2022-11-10T15:57:49;16.00;99.90
20376;DHT22;10347;51.828;6.466;2022-11-10T16:00:14;16.00;99.90
20376;DHT22;10347;51.828;6.466;2022-11-10T16:02:41;15.90;99.90
20376;DHT22;10347;51.828;6.466;2022-11-10T16:05:11;15.90;99.90
20376;DHT22;10347;51.828;6.466;2022-11-10T16:07:36;15.90;99.90
20376;DHT22;10347;51.828;6.466;2022-11-10T16:10:03;15.70;99.90
20376;DHT22;10347;51.828;6.466;2022-11-10T16:12:29;15.80;99.90
20376;DHT22;10347;51.828;6.466;2022-11-10T16:14:55;15.80;99.90
20376;DHT22;10347;51.828;6.466;2022-11-10T16:17:20;15.70;99.90
20376;DHT22;10347;51.828;6.466;2022-11-10T16:19:46;15.70;99.90
20376;DHT22;10347;51.828;6.466;2022-11-10T16:22:12;15.60;99.90
20376;DHT22;10347;51.828;6.466;2022-11-10T16:24:38;15.70;99.90
20376;DHT22;10347;51.828;6.466;2022-11-10T16:27:06;15.70;99.90
20376;DHT22;10347;51.828;6.466;2022-11-10T16:29:35;15.60;99.90
20376;DHT22;10347;51.828;6.466;2022-11-10T16:32:00;15.60;99.90
20376;DHT22;10347;51.828;6.466;2022-11-10T16:34:26;15.60;99.90
20376;DHT22;10347;51.828;6.466;2022-11-10T16:36:52;15.60;99.90
20376;DHT22;10347;51.828;6.466;2022-11-10T16:39:17;15.60;99.90
20376;DHT22;10347;51.828;6.466;2022-11-10T16:41:43;15.60;99.90
20376;DHT22;10347;51.828;6.466;2022-11-10T16:44:13;15.60;99.90
20376;DHT22;10347;51.828;6.466;2022-11-10T16:46:45;15.60;99.90
20376;DHT22;10347;51.828;6.466;2022-11-10T16:49:33;15.50;99.90
20376;DHT22;10347;51.828;6.466;2022-11-10T16:52:03;15.50;99.90
20376;DHT22;10347;51.828;6.466;2022-11-10T16:54:32;15.40;99.90
20376;DHT22;10347;51.828;6.466;2022-11-10T16:56:58;15.40;99.90
20376;DHT22;10347;51.828;6.466;2022-11-10T16:59:23;15.40;99.90
20376;DHT22;10347;51.828;6.466;2022-11-10T17:01:49;15.30;99.90
20376;DHT22;10347;51.828;6.466;2022-11-10T17:04:17;15.30;99.90
20376;DHT22;10347;51.828;6.466;2022-11-10T17:06:42;15.30;99.90
20376;DHT22;10347;51.828;6.466;2022-11-10T17:09:15;15.30;99.90
20376;DHT22;10347;51.828;6.466;2022-11-10T17:11:41;15.30;99.90
20376;DHT22;10347;51.828;6.466;2022-11-10T17:14:10;15.20;99.90
20376;DHT22;10347;51.828;6.466;2022-11-10T17:16:37;15.20;99.90
20376;DHT22;10347;51.828;6.466;2022-11-10T17:19:04;15.20;99.90
20376;DHT22;10347;51.828;6.466;2022-11-10T17:21:33;15.20;99.90
20376;DHT22;10347;51.828;6.466;2022-11-10T17:24:01;15.10;99.90
20376;DHT22;10347;51.828;6.466;2022-11-10T17:26:28;15.10;99.90
20376;DHT22;10347;51.828;6.466;2022-11-10T17:28:53;15.10;99.90